Time,TemperatureF,DewpointF,PressureIn,WindDirection,WindDirectionDegrees,WindSpeedMPH,WindSpeedGustMPH,Humidity,HourlyPrecipIn,Conditions,Clouds,dailyrainin,SolarRadiationWatts/m^2,SoftwareType,DateUTC
2013-03-06 00:00:00,36.9,35.1,29.69,ESE,115,3.0,3.0,93,0.00,,,0.40,0,Wunderground v.1.15,2013-03-06 05:00:00,
2013-03-06 00:06:00,37.1,35.0,29.69,NE,51,3.0,5.0,92,0.00,,,0.40,0,Wunderground v.1.15,2013-03-06 05:06:00,
2013-03-06 00:12:00,37.1,35.0,29.69,East,96,5.0,6.0,92,0.00,,,0.40,0,Wunderground v.1.15,2013-03-06 05:12:00,
2013-03-06 00:18:00,37.2,35.1,29.68,ENE,78,4.0,8.0,92,0.00,,,0.40,0,Wunderground v.1.15,2013-03-06 05:18:00,
2013-03-06 00:24:00,37.4,35.3,29.67,NE,44,5.0,5.0,92,0.00,,,0.40,0,Wunderground v.1.15,2013-03-06 05:24:00,
2013-03-06 00:30:00,37.5,35.4,29.67,NE,49,2.0,5.0,92,0.00,,,0.41,0,Wunderground v.1.15,2013-03-06 05:30:00,
2013-03-06 00:36:00,37.2,35.1,29.66,NNE,25,4.0,6.0,92,0.00,,,0.41,0,Wunderground v.1.15,2013-03-06 05:36:00,
2013-03-06 00:42:00,36.9,34.8,29.66,NE,44,4.0,8.0,92,0.00,,,0.41,0,Wunderground v.1.15,2013-03-06 05:42:00,
2013-03-06 00:47:00,37.0,35.2,29.65,NE,46,5.0,8.0,93,0.00,,,0.41,0,Wunderground v.1.15,2013-03-06 05:47:00,
2013-03-06 00:53:00,37.1,35.3,29.64,NNE,22,4.0,5.0,93,0.00,,,0.41,0,Wunderground v.1.15,2013-03-06 05:53:00,
2013-03-06 00:59:00,37.0,35.2,29.64,NNE,32,5.0,7.0,93,0.00,,,0.41,0,Wunderground v.1.15,2013-03-06 05:59:00,
2013-03-06 01:05:00,37.0,35.2,29.63,NE,43,5.0,7.0,93,0.00,,,0.00,0,Wunderground v.1.15,2013-03-06 06:05:00,
2013-03-06 01:11:00,37.3,35.7,29.63,ENE,57,2.0,5.0,94,0.00,,,0.00,0,Wunderground v.1.15,2013-03-06 06:11:00,
2013-03-06 01:17:00,37.6,35.8,29.62,ENE,78,3.0,7.0,93,0.00,,,0.00,0,Wunderground v.1.15,2013-03-06 06:17:00,
2013-03-06 01:23:00,37.5,35.7,29.62,NE,36,7.0,7.0,93,0.00,,,0.00,0,Wunderground v.1.15,2013-03-06 06:23:00,
2013-03-06 01:29:00,37.4,35.6,29.61,NE,37,5.0,7.0,93,0.00,,,0.00,0,Wunderground v.1.15,2013-03-06 06:29:00,
2013-03-06 01:35:00,37.7,36.1,29.61,NE,34,4.0,8.0,94,0.00,,,0.00,0,Wunderground v.1.15,2013-03-06 06:35:00,
2013-03-06 01:41:00,37.8,36.2,29.60,NE,46,2.0,3.0,94,0.00,,,0.00,0,Wunderground v.1.15,2013-03-06 06:41:00,
2013-03-06 01:47:00,37.5,35.7,29.61,NNE,25,4.0,6.0,93,0.00,,,0.00,0,Wunderground v.1.15,2013-03-06 06:47:00,
2013-03-06 01:53:00,37.2,35.6,29.60,North,11,1.0,3.0,94,0.00,,,0.00,0,Wunderground v.1.15,2013-03-06 06:53:00,
2013-03-06 01:58:00,37.0,35.4,29.60,NNE,22,2.0,3.0,94,0.00,,,0.00,0,Wunderground v.1.15,2013-03-06 06:58:00,
2013-03-06 02:03:00,37.1,35.8,29.60,NNE,16,0.0,3.0,95,0.00,,,0.00,0,Wunderground v.1.15,2013-03-06 07:03:00,
2013-03-06 02:08:00,37.0,35.7,29.59,NNW,339,0.0,3.0,95,0.00,,,0.00,0,Wunderground v.1.15,2013-03-06 07:08:00,
2013-03-06 02:13:00,37.0,35.7,29.60,NW,311,1.0,4.0,95,0.00,,,0.00,0,Wunderground v.1.15,2013-03-06 07:13:00,
2013-03-06 02:18:00,37.0,35.7,29.59,North,5,0.0,4.0,95,0.00,,,0.00,0,Wunderground v.1.15,2013-03-06 07:18:00,
2013-03-06 02:23:00,37.0,35.7,29.59,NNW,332,0.0,4.0,95,0.00,,,0.00,0,Wunderground v.1.15,2013-03-06 07:23:00,
2013-03-06 02:28:00,37.0,35.7,29.59,North,351,1.0,4.0,95,0.00,,,0.00,0,Wunderground v.1.15,2013-03-06 07:28:00,
2013-03-06 02:33:00,37.0,36.0,29.58,NNW,329,5.0,5.0,96,0.00,,,0.00,0,Wunderground v.1.15,2013-03-06 07:33:00,
2013-03-06 02:38:00,37.1,36.1,29.58,NNE,13,4.0,5.0,96,0.00,,,0.00,0,Wunderground v.1.15,2013-03-06 07:38:00,
2013-03-06 02:43:00,37.1,36.1,29.58,North,355,3.0,4.0,96,0.00,,,0.00,0,Wunderground v.1.15,2013-03-06 07:43:00,
2013-03-06 02:48:00,37.1,36.1,29.58,NW,311,5.0,6.0,96,0.00,,,0.00,0,Wunderground v.1.15,2013-03-06 07:48:00,
2013-03-06 02:53:00,37.2,36.2,29.59,NW,325,2.0,4.0,96,0.00,,,0.00,0,Wunderground v.1.15,2013-03-06 07:53:00,
2013-03-06 02:58:00,37.2,36.2,29.59,WNW,290,0.0,4.0,96,0.26,,,0.02,0,Wunderground v.1.15,2013-03-06 07:58:00,
2013-03-06 03:03:00,37.3,36.3,29.58,NNW,347,0.0,2.0,96,0.12,,,0.03,0,Wunderground v.1.15,2013-03-06 08:03:00,
2013-03-06 03:08:00,37.3,36.3,29.58,WNW,285,1.0,5.0,96,0.10,,,0.03,0,Wunderground v.1.15,2013-03-06 08:08:00,
2013-03-06 03:13:00,37.3,36.3,29.58,NNW,342,1.0,3.0,96,0.06,,,0.03,0,Wunderground v.1.15,2013-03-06 08:13:00,
2013-03-06 03:18:00,37.3,36.3,29.58,North,360,3.0,6.0,96,0.04,,,0.03,0,Wunderground v.1.15,2013-03-06 08:18:00,
2013-03-06 03:23:00,37.4,36.4,29.58,NW,322,0.0,4.0,96,0.00,,,0.03,0,Wunderground v.1.15,2013-03-06 08:23:00,
2013-03-06 03:28:00,37.4,36.4,29.57,WNW,296,3.0,6.0,96,0.00,,,0.04,0,Wunderground v.1.15,2013-03-06 08:28:00,
2013-03-06 03:33:00,37.5,36.5,29.57,NNW,327,1.0,4.0,96,0.00,,,0.04,0,Wunderground v.1.15,2013-03-06 08:33:00,
2013-03-06 03:38:00,37.4,36.4,29.57,NNW,342,1.0,5.0,96,0.00,,,0.04,0,Wunderground v.1.15,2013-03-06 08:38:00,
2013-03-06 03:43:00,37.4,36.4,29.57,NW,319,2.0,5.0,96,0.00,,,0.04,0,Wunderground v.1.15,2013-03-06 08:43:00,
2013-03-06 03:48:00,37.4,36.4,29.57,NW,323,3.0,7.0,96,0.00,,,0.04,0,Wunderground v.1.15,2013-03-06 08:48:00,
2013-03-06 03:54:00,37.3,36.3,29.57,NNW,338,1.0,9.0,96,0.00,,,0.04,0,Wunderground v.1.15,2013-03-06 08:54:00,
2013-03-06 03:59:00,37.0,36.0,29.58,NW,324,2.0,10.0,96,0.00,,,0.04,0,Wunderground v.1.15,2013-03-06 08:59:00,
2013-03-06 04:04:00,36.6,35.6,29.58,North,350,0.0,8.0,96,0.00,,,0.04,0,Wunderground v.1.15,2013-03-06 09:04:00,
2013-03-06 04:09:00,36.1,35.1,29.58,NW,319,6.0,9.0,96,0.00,,,0.04,0,Wunderground v.1.15,2013-03-06 09:09:00,
2013-03-06 04:14:00,35.6,34.3,29.59,WNW,302,0.0,7.0,95,0.00,,,0.04,0,Wunderground v.1.15,2013-03-06 09:14:00,
2013-03-06 04:19:00,35.2,33.9,29.59,SW,236,3.0,7.0,95,0.00,,,0.04,0,Wunderground v.1.15,2013-03-06 09:19:00,
2013-03-06 04:24:00,34.9,33.6,29.59,NNE,28,1.0,7.0,95,0.00,,,0.04,0,Wunderground v.1.15,2013-03-06 09:24:00,
2013-03-06 04:29:00,34.6,33.3,29.59,NNW,340,3.0,8.0,95,0.00,,,0.05,0,Wunderground v.1.15,2013-03-06 09:29:00,
2013-03-06 04:34:00,34.4,33.1,29.59,NNW,342,2.0,6.0,95,0.00,,,0.05,0,Wunderground v.1.15,2013-03-06 09:34:00,
2013-03-06 04:39:00,34.2,32.9,29.59,NW,313,4.0,8.0,95,0.00,,,0.05,0,Wunderground v.1.15,2013-03-06 09:39:00,
2013-03-06 04:44:00,33.9,32.6,29.60,West,277,3.0,4.0,95,0.00,,,0.05,0,Wunderground v.1.15,2013-03-06 09:44:00,
2013-03-06 04:49:00,33.7,32.4,29.60,NNW,347,2.0,8.0,95,0.00,,,0.05,0,Wunderground v.1.15,2013-03-06 09:49:00,
2013-03-06 04:54:00,33.4,32.1,29.60,WNW,294,7.0,9.0,95,0.00,,,0.05,0,Wunderground v.1.15,2013-03-06 09:54:00,
2013-03-06 04:59:00,33.2,31.9,29.60,West,280,2.0,9.0,95,0.00,,,0.05,0,Wunderground v.1.15,2013-03-06 09:59:00,
2013-03-06 05:04:00,32.9,31.6,29.60,North,5,1.0,6.0,95,0.00,,,0.05,0,Wunderground v.1.15,2013-03-06 10:04:00,
2013-03-06 05:09:00,32.7,31.4,29.60,NNW,338,1.0,8.0,95,0.00,,,0.05,0,Wunderground v.1.15,2013-03-06 10:09:00,
2013-03-06 05:14:00,32.6,31.3,29.60,West,276,4.0,5.0,95,0.00,,,0.05,0,Wunderground v.1.15,2013-03-06 10:14:00,
2013-03-06 05:19:00,32.6,31.6,29.60,WNW,288,1.0,8.0,96,0.00,,,0.05,0,Wunderground v.1.15,2013-03-06 10:19:00,
2013-03-06 05:24:00,32.6,31.6,29.60,WSW,242,0.0,7.0,96,0.00,,,0.05,0,Wunderground v.1.15,2013-03-06 10:24:00,
2013-03-06 05:29:00,32.7,31.7,29.60,WNW,289,2.0,7.0,96,0.00,,,0.05,0,Wunderground v.1.15,2013-03-06 10:29:00,
2013-03-06 05:34:00,32.8,31.8,29.60,WNW,293,1.0,9.0,96,0.00,,,0.05,0,Wunderground v.1.15,2013-03-06 10:34:00,
2013-03-06 05:39:00,32.8,31.8,29.60,WSW,256,2.0,9.0,96,0.00,,,0.05,0,Wunderground v.1.15,2013-03-06 10:39:00,
2013-03-06 05:44:00,32.9,31.9,29.60,WNW,294,3.0,7.0,96,0.00,,,0.05,0,Wunderground v.1.15,2013-03-06 10:44:00,
2013-03-06 05:49:00,33.0,32.0,29.61,NNW,338,2.0,7.0,96,0.00,,,0.05,0,Wunderground v.1.15,2013-03-06 10:49:00,
2013-03-06 05:54:00,33.0,32.0,29.61,NNW,340,3.0,7.0,96,0.00,,,0.05,0,Wunderground v.1.15,2013-03-06 10:54:00,
2013-03-06 05:59:00,33.1,32.1,29.61,WSW,238,4.0,9.0,96,0.00,,,0.05,0,Wunderground v.1.15,2013-03-06 10:59:00,
2013-03-06 06:04:00,33.2,32.2,29.61,West,275,2.0,9.0,96,0.00,,,0.05,0,Wunderground v.1.15,2013-03-06 11:04:00,
2013-03-06 06:09:00,33.2,32.2,29.61,NW,311,2.0,9.0,96,0.00,,,0.05,0,Wunderground v.1.15,2013-03-06 11:09:00,
2013-03-06 06:14:00,33.3,32.3,29.61,NNW,344,5.0,5.0,96,0.00,,,0.05,0,Wunderground v.1.15,2013-03-06 11:14:00,
2013-03-06 06:19:00,33.3,32.3,29.61,NW,314,3.0,8.0,96,0.00,,,0.05,0,Wunderground v.1.15,2013-03-06 11:19:00,
2013-03-06 06:25:00,33.3,32.3,29.61,SW,236,6.0,8.0,96,0.00,,,0.05,0,Wunderground v.1.15,2013-03-06 11:25:00,
2013-03-06 06:30:00,33.3,32.3,29.61,West,272,4.0,4.0,96,0.00,,,0.05,0,Wunderground v.1.15,2013-03-06 11:30:00,
2013-03-06 06:35:00,33.4,32.1,29.62,NW,310,0.0,11.0,95,0.00,,,0.05,0,Wunderground v.1.15,2013-03-06 11:35:00,
2013-03-06 06:40:00,33.5,32.2,29.61,WNW,301,6.0,6.0,95,0.00,,,0.05,0,Wunderground v.1.15,2013-03-06 11:40:00,
2013-03-06 06:45:00,33.5,32.2,29.61,WSW,256,0.0,10.0,95,0.00,,,0.05,0,Wunderground v.1.15,2013-03-06 11:45:00,
2013-03-06 06:50:00,33.6,32.6,29.61,West,270,2.0,2.0,96,0.00,,,0.05,5,Wunderground v.1.15,2013-03-06 11:50:00,
2013-03-06 06:55:00,33.5,32.2,29.61,WNW,298,0.0,8.0,95,0.00,,,0.06,7,Wunderground v.1.15,2013-03-06 11:55:00,
2013-03-06 07:00:00,33.5,32.2,29.61,NW,315,2.0,4.0,95,0.00,,,0.06,7,Wunderground v.1.15,2013-03-06 12:00:00,
2013-03-06 07:05:00,33.5,32.5,29.61,NNW,344,2.0,9.0,96,0.00,,,0.06,11,Wunderground v.1.15,2013-03-06 12:05:00,
2013-03-06 07:10:00,33.5,32.2,29.61,WSW,241,5.0,5.0,95,0.00,,,0.06,18,Wunderground v.1.15,2013-03-06 12:10:00,
2013-03-06 07:15:00,33.6,32.3,29.61,West,271,4.0,12.0,95,0.00,,,0.07,25,Wunderground v.1.15,2013-03-06 12:15:00,
2013-03-06 07:20:00,33.7,32.7,29.62,WNW,301,3.0,6.0,96,0.00,,,0.07,28,Wunderground v.1.15,2013-03-06 12:20:00,
2013-03-06 07:25:00,33.8,32.8,29.62,NNE,24,1.0,9.0,96,0.00,,,0.07,33,Wunderground v.1.15,2013-03-06 12:25:00,
2013-03-06 07:30:00,33.8,32.8,29.62,NW,314,4.0,4.0,96,0.00,,,0.07,18,Wunderground v.1.15,2013-03-06 12:30:00,
2013-03-06 07:35:00,33.9,32.9,29.62,WNW,294,3.0,7.0,96,0.00,,,0.07,19,Wunderground v.1.15,2013-03-06 12:35:00,
2013-03-06 07:40:00,33.9,32.9,29.62,NNW,334,6.0,6.0,96,0.00,,,0.08,28,Wunderground v.1.15,2013-03-06 12:40:00,
2013-03-06 07:45:00,33.9,32.9,29.62,SSE,159,0.0,7.0,96,0.00,,,0.08,32,Wunderground v.1.15,2013-03-06 12:45:00,
2013-03-06 07:50:00,33.9,32.9,29.62,NW,310,3.0,8.0,96,0.00,,,0.08,35,Wunderground v.1.15,2013-03-06 12:50:00,
2013-03-06 07:55:00,33.8,32.8,29.63,WNW,294,3.0,12.0,96,0.04,,,0.09,49,Wunderground v.1.15,2013-03-06 12:55:00,
2013-03-06 08:00:00,33.8,32.8,29.63,West,280,4.0,6.0,96,0.04,,,0.09,39,Wunderground v.1.15,2013-03-06 13:00:00,
2013-03-06 08:05:00,33.6,32.6,29.63,West,263,4.0,9.0,96,0.04,,,0.09,30,Wunderground v.1.15,2013-03-06 13:05:00,
2013-03-06 08:10:00,33.5,32.2,29.63,WSW,240,5.0,6.0,95,0.00,,,0.09,35,Wunderground v.1.15,2013-03-06 13:10:00,
2013-03-06 08:15:00,33.5,32.2,29.63,West,274,3.0,10.0,95,0.00,,,0.10,35,Wunderground v.1.15,2013-03-06 13:15:00,
2013-03-06 08:20:00,33.5,32.5,29.63,WSW,251,6.0,9.0,96,0.00,,,0.10,72,Wunderground v.1.15,2013-03-06 13:20:00,
2013-03-06 08:25:00,33.6,32.6,29.63,WNW,300,6.0,9.0,96,0.05,,,0.11,86,Wunderground v.1.15,2013-03-06 13:25:00,
2013-03-06 08:30:00,33.8,32.8,29.63,West,271,5.0,5.0,96,0.05,,,0.11,81,Wunderground v.1.15,2013-03-06 13:30:00,
2013-03-06 08:35:00,33.9,32.9,29.63,WNW,297,2.0,13.0,96,0.05,,,0.11,98,Wunderground v.1.15,2013-03-06 13:35:00,
2013-03-06 08:40:00,33.9,32.9,29.63,NW,319,5.0,12.0,96,0.05,,,0.12,83,Wunderground v.1.15,2013-03-06 13:40:00,
2013-03-06 08:45:00,33.8,32.8,29.63,WNW,287,4.0,12.0,96,0.05,,,0.12,67,Wunderground v.1.15,2013-03-06 13:45:00,
2013-03-06 08:51:00,33.7,32.7,29.63,WSW,247,7.0,10.0,96,0.06,,,0.13,69,Wunderground v.1.15,2013-03-06 13:51:00,
2013-03-06 08:56:00,33.6,32.6,29.63,WNW,299,5.0,11.0,96,0.06,,,0.13,74,Wunderground v.1.15,2013-03-06 13:56:00,
2013-03-06 09:01:00,33.6,32.6,29.63,WNW,290,2.0,5.0,96,0.05,,,0.13,98,Wunderground v.1.15,2013-03-06 14:01:00,
2013-03-06 09:06:00,33.6,32.6,29.63,WSW,242,7.0,17.0,96,0.00,,,0.13,84,Wunderground v.1.15,2013-03-06 14:06:00,
2013-03-06 09:11:00,33.5,32.2,29.63,WNW,284,5.0,9.0,95,0.00,,,0.14,56,Wunderground v.1.15,2013-03-06 14:11:00,
2013-03-06 09:16:00,33.5,32.2,29.63,South,180,6.0,12.0,95,0.00,,,0.14,74,Wunderground v.1.15,2013-03-06 14:16:00,
2013-03-06 09:21:00,33.5,32.2,29.63,NNW,329,2.0,12.0,95,0.00,,,0.14,86,Wunderground v.1.15,2013-03-06 14:21:00,
2013-03-06 09:26:00,33.5,32.2,29.63,WNW,288,2.0,13.0,95,0.00,,,0.14,46,Wunderground v.1.15,2013-03-06 14:26:00,
2013-03-06 09:31:00,33.5,32.2,29.63,NW,315,6.0,11.0,95,0.00,,,0.15,63,Wunderground v.1.15,2013-03-06 14:31:00,
2013-03-06 09:36:00,33.5,32.2,29.63,North,350,1.0,13.0,95,0.00,,,0.15,63,Wunderground v.1.15,2013-03-06 14:36:00,
2013-03-06 09:41:00,33.5,32.2,29.63,WSW,250,4.0,14.0,95,0.00,,,0.15,105,Wunderground v.1.15,2013-03-06 14:41:00,
2013-03-06 09:46:00,33.6,32.3,29.63,SSW,194,7.0,15.0,95,0.00,,,0.15,109,Wunderground v.1.15,2013-03-06 14:46:00,
2013-03-06 09:51:00,33.8,32.8,29.63,West,269,3.0,9.0,96,0.04,,,0.16,134,Wunderground v.1.15,2013-03-06 14:51:00,
2013-03-06 09:56:00,33.8,32.8,29.63,NNW,329,3.0,14.0,96,0.04,,,0.16,81,Wunderground v.1.15,2013-03-06 14:56:00,
2013-03-06 10:01:00,33.8,32.8,29.63,NW,321,3.0,8.0,96,0.04,,,0.16,62,Wunderground v.1.15,2013-03-06 15:01:00,
2013-03-06 10:06:00,33.8,32.8,29.63,West,261,9.0,11.0,96,0.04,,,0.17,123,Wunderground v.1.15,2013-03-06 15:06:00,
2013-03-06 10:11:00,33.9,32.9,29.64,NW,309,9.0,20.0,96,0.04,,,0.17,81,Wunderground v.1.15,2013-03-06 15:11:00,
2013-03-06 10:16:00,34.0,32.7,29.63,West,265,4.0,20.0,95,0.04,,,0.17,105,Wunderground v.1.15,2013-03-06 15:16:00,
2013-03-06 10:21:00,34.2,33.2,29.63,West,271,4.0,18.0,96,0.00,,,0.17,90,Wunderground v.1.15,2013-03-06 15:21:00,
2013-03-06 10:26:00,34.2,32.9,29.64,NNW,329,4.0,18.0,95,0.00,,,0.17,88,Wunderground v.1.15,2013-03-06 15:26:00,
2013-03-06 10:31:00,34.0,32.7,29.64,NE,38,1.0,10.0,95,0.00,,,0.17,54,Wunderground v.1.15,2013-03-06 15:31:00,
2013-03-06 10:36:00,33.8,32.5,29.65,West,261,5.0,10.0,95,0.00,,,0.18,100,Wunderground v.1.15,2013-03-06 15:36:00,
2013-03-06 10:41:00,33.7,32.4,29.65,WNW,294,8.0,12.0,95,0.00,,,0.18,114,Wunderground v.1.15,2013-03-06 15:41:00,
2013-03-06 10:46:00,33.7,32.4,29.65,SSW,195,3.0,17.0,95,0.05,,,0.19,116,Wunderground v.1.15,2013-03-06 15:46:00,
2013-03-06 10:51:00,33.7,32.4,29.65,West,275,7.0,12.0,95,0.05,,,0.19,155,Wunderground v.1.15,2013-03-06 15:51:00,
2013-03-06 10:56:00,33.7,32.4,29.65,West,271,4.0,14.0,95,0.05,,,0.19,160,Wunderground v.1.15,2013-03-06 15:56:00,
2013-03-06 11:01:00,33.8,32.5,29.65,West,271,7.0,14.0,95,0.05,,,0.20,146,Wunderground v.1.15,2013-03-06 16:01:00,
2013-03-06 11:06:00,34.0,32.7,29.66,West,281,4.0,15.0,95,0.05,,,0.20,160,Wunderground v.1.15,2013-03-06 16:06:00,
2013-03-06 11:12:00,34.2,33.2,29.65,NW,313,8.0,19.0,96,0.05,,,0.21,206,Wunderground v.1.15,2013-03-06 16:12:00,
2013-03-06 11:17:00,34.4,33.1,29.66,WNW,288,13.0,19.0,95,0.05,,,0.21,151,Wunderground v.1.15,2013-03-06 16:17:00,
2013-03-06 11:22:00,34.4,33.1,29.66,West,260,13.0,13.0,95,0.05,,,0.21,163,Wunderground v.1.15,2013-03-06 16:22:00,
2013-03-06 11:27:00,34.4,33.1,29.66,West,277,4.0,16.0,95,0.04,,,0.21,200,Wunderground v.1.15,2013-03-06 16:27:00,
2013-03-06 11:32:00,34.5,33.2,29.66,North,355,7.0,16.0,95,0.00,,,0.22,216,Wunderground v.1.15,2013-03-06 16:32:00,
2013-03-06 11:37:00,34.7,33.7,29.66,West,260,9.0,16.0,96,0.00,,,0.22,195,Wunderground v.1.15,2013-03-06 16:37:00,
2013-03-06 11:42:00,34.8,33.5,29.66,WNW,287,5.0,16.0,95,0.05,,,0.23,237,Wunderground v.1.15,2013-03-06 16:42:00,
2013-03-06 11:47:00,35.0,33.7,29.66,NW,310,4.0,19.0,95,0.05,,,0.23,188,Wunderground v.1.15,2013-03-06 16:47:00,
2013-03-06 11:52:00,35.1,33.8,29.66,NW,317,7.0,15.0,95,0.05,,,0.23,229,Wunderground v.1.15,2013-03-06 16:52:00,
2013-03-06 11:57:00,35.1,33.8,29.67,WNW,287,16.0,16.0,95,0.05,,,0.24,174,Wunderground v.1.15,2013-03-06 16:57:00,
2013-03-06 12:02:00,35.1,33.8,29.66,WNW,302,3.0,16.0,95,0.09,,,0.25,213,Wunderground v.1.15,2013-03-06 17:02:00,
2013-03-06 12:07:00,35.2,33.9,29.67,NNW,348,4.0,16.0,95,0.09,,,0.25,218,Wunderground v.1.15,2013-03-06 17:07:00,
2013-03-06 12:12:00,35.5,34.2,29.67,NW,306,10.0,16.0,95,0.05,,,0.25,257,Wunderground v.1.15,2013-03-06 17:12:00,
2013-03-06 12:17:00,35.9,34.6,29.67,WNW,302,9.0,18.0,95,0.04,,,0.25,218,Wunderground v.1.15,2013-03-06 17:17:00,
2013-03-06 12:22:00,36.2,34.9,29.67,NW,307,5.0,8.0,95,0.04,,,0.26,232,Wunderground v.1.15,2013-03-06 17:22:00,
2013-03-06 12:27:00,36.3,35.0,29.67,NNW,343,9.0,21.0,95,0.04,,,0.26,264,Wunderground v.1.15,2013-03-06 17:27:00,
2013-03-06 12:32:00,36.6,35.3,29.67,WSW,249,8.0,15.0,95,0.04,,,0.26,248,Wunderground v.1.15,2013-03-06 17:32:00,
2013-03-06 12:37:00,36.7,35.4,29.67,NNE,16,9.0,16.0,95,0.00,,,0.26,230,Wunderground v.1.15,2013-03-06 17:37:00,
2013-03-06 12:42:00,36.6,35.3,29.68,NW,306,3.0,16.0,95,0.00,,,0.27,204,Wunderground v.1.15,2013-03-06 17:42:00,
2013-03-06 12:47:00,36.7,35.4,29.68,NNW,327,9.0,16.0,95,0.00,,,0.27,229,Wunderground v.1.15,2013-03-06 17:47:00,
2013-03-06 12:52:00,36.8,35.5,29.68,WNW,290,5.0,16.0,95,0.00,,,0.27,230,Wunderground v.1.15,2013-03-06 17:52:00,
2013-03-06 12:57:00,36.8,35.5,29.68,West,275,4.0,16.0,95,0.05,,,0.28,188,Wunderground v.1.15,2013-03-06 17:57:00,
2013-03-06 13:02:00,36.8,35.5,29.68,WSW,252,7.0,17.0,95,0.05,,,0.28,209,Wunderground v.1.15,2013-03-06 18:02:00,
2013-03-06 13:07:00,36.9,35.6,29.69,WNW,286,2.0,17.0,95,0.04,,,0.29,234,Wunderground v.1.15,2013-03-06 18:07:00,
2013-03-06 13:12:00,36.8,35.5,29.69,NW,319,5.0,15.0,95,0.04,,,0.29,221,Wunderground v.1.15,2013-03-06 18:12:00,
2013-03-06 13:17:00,36.8,35.5,29.70,North,360,1.0,25.0,95,0.04,,,0.29,197,Wunderground v.1.15,2013-03-06 18:17:00,
2013-03-06 13:22:00,36.9,35.6,29.70,ESE,120,3.0,14.0,95,0.04,,,0.29,211,Wunderground v.1.15,2013-03-06 18:22:00,
2013-03-06 13:27:00,36.9,35.6,29.70,East,90,8.0,22.0,95,0.00,,,0.29,200,Wunderground v.1.15,2013-03-06 18:27:00,
2013-03-06 13:32:00,36.9,35.6,29.70,WNW,294,3.0,15.0,95,0.00,,,0.29,200,Wunderground v.1.15,2013-03-06 18:32:00,
2013-03-06 13:37:00,37.0,35.7,29.70,NNW,342,4.0,16.0,95,0.00,,,0.30,179,Wunderground v.1.15,2013-03-06 18:37:00,
2013-03-06 13:42:00,37.0,35.7,29.71,NW,322,4.0,13.0,95,0.00,,,0.30,181,Wunderground v.1.15,2013-03-06 18:42:00,
2013-03-06 13:48:00,37.0,35.7,29.71,WNW,287,4.0,13.0,95,0.00,,,0.30,142,Wunderground v.1.15,2013-03-06 18:48:00,
2013-03-06 13:53:00,36.9,35.3,29.72,NW,316,6.0,10.0,94,0.04,,,0.31,146,Wunderground v.1.15,2013-03-06 18:53:00,
2013-03-06 13:58:00,36.8,35.5,29.72,North,360,1.0,16.0,95,0.04,,,0.31,146,Wunderground v.1.15,2013-03-06 18:58:00,
2013-03-06 14:03:00,37.0,35.7,29.72,SW,234,6.0,11.0,95,0.07,,,0.32,158,Wunderground v.1.15,2013-03-06 19:03:00,
2013-03-06 14:08:00,37.0,35.7,29.72,WNW,290,3.0,15.0,95,0.07,,,0.33,163,Wunderground v.1.15,2013-03-06 19:08:00,
2013-03-06 14:13:00,37.1,35.8,29.73,North,355,5.0,12.0,95,0.07,,,0.33,137,Wunderground v.1.15,2013-03-06 19:13:00,
2013-03-06 14:18:00,37.2,35.9,29.73,NNE,19,3.0,12.0,95,0.05,,,0.33,141,Wunderground v.1.15,2013-03-06 19:18:00,
2013-03-06 14:23:00,37.4,36.1,29.74,NW,305,3.0,14.0,95,0.04,,,0.34,181,Wunderground v.1.15,2013-03-06 19:23:00,
2013-03-06 14:28:00,37.6,36.3,29.74,NW,309,10.0,18.0,95,0.04,,,0.34,179,Wunderground v.1.15,2013-03-06 19:28:00,
2013-03-06 14:33:00,37.8,36.5,29.75,NW,323,8.0,15.0,95,0.04,,,0.34,190,Wunderground v.1.15,2013-03-06 19:33:00,
2013-03-06 14:38:00,38.0,36.7,29.75,NNW,348,9.0,18.0,95,0.04,,,0.34,244,Wunderground v.1.15,2013-03-06 19:38:00,
2013-03-06 14:43:00,38.2,36.6,29.75,WNW,291,3.0,20.0,94,0.00,,,0.35,260,Wunderground v.1.15,2013-03-06 19:43:00,
2013-03-06 14:48:00,38.4,36.8,29.75,NW,319,9.0,20.0,94,0.00,,,0.35,148,Wunderground v.1.15,2013-03-06 19:48:00,
2013-03-06 14:53:00,38.3,36.7,29.76,NW,307,4.0,20.0,94,0.00,,,0.35,91,Wunderground v.1.15,2013-03-06 19:53:00,
2013-03-06 14:58:00,38.2,36.4,29.77,North,5,4.0,20.0,93,0.00,,,0.35,102,Wunderground v.1.15,2013-03-06 19:58:00,
2013-03-06 15:03:00,38.2,36.6,29.77,NW,317,7.0,13.0,94,0.00,,,0.35,104,Wunderground v.1.15,2013-03-06 20:03:00,
2013-03-06 15:08:00,38.2,36.6,29.77,NNW,329,13.0,20.0,94,0.00,,,0.36,104,Wunderground v.1.15,2013-03-06 20:08:00,
2013-03-06 15:13:00,38.2,36.4,29.77,WNW,293,4.0,18.0,93,0.00,,,0.36,120,Wunderground v.1.15,2013-03-06 20:13:00,
2013-03-06 15:18:00,38.2,36.4,29.78,NNW,330,20.0,21.0,93,0.05,,,0.36,139,Wunderground v.1.15,2013-03-06 20:18:00,
2013-03-06 15:23:00,38.3,36.5,29.78,West,273,6.0,13.0,93,0.05,,,0.37,162,Wunderground v.1.15,2013-03-06 20:23:00,
2013-03-06 15:28:00,38.5,36.7,29.79,WNW,286,4.0,21.0,93,0.05,,,0.37,139,Wunderground v.1.15,2013-03-06 20:28:00,
2013-03-06 15:33:00,38.5,36.7,29.80,WNW,303,2.0,19.0,93,0.04,,,0.37,144,Wunderground v.1.15,2013-03-06 20:33:00,
2013-03-06 15:38:00,38.6,36.8,29.80,NW,313,13.0,19.0,93,0.00,,,0.37,134,Wunderground v.1.15,2013-03-06 20:38:00,
2013-03-06 15:43:00,38.7,36.9,29.80,NW,326,8.0,14.0,93,0.00,,,0.37,120,Wunderground v.1.15,2013-03-06 20:43:00,
2013-03-06 15:49:00,38.8,36.9,29.81,WNW,293,4.0,14.0,93,0.00,,,0.37,144,Wunderground v.1.15,2013-03-06 20:49:00,
2013-03-06 15:54:00,38.9,36.8,29.81,NW,311,9.0,18.0,92,0.00,,,0.37,149,Wunderground v.1.15,2013-03-06 20:54:00,
2013-03-06 15:59:00,39.1,37.0,29.82,WNW,300,12.0,18.0,92,0.00,,,0.37,167,Wunderground v.1.15,2013-03-06 20:59:00,
2013-03-06 16:04:00,39.1,37.0,29.83,WNW,295,14.0,20.0,92,0.00,,,0.37,127,Wunderground v.1.15,2013-03-06 21:04:00,
2013-03-06 16:09:00,39.0,36.9,29.83,NNW,348,3.0,20.0,92,0.00,,,0.37,98,Wunderground v.1.15,2013-03-06 21:09:00,
2013-03-06 16:14:00,39.0,36.9,29.84,WNW,302,9.0,19.0,92,0.00,,,0.38,79,Wunderground v.1.15,2013-03-06 21:14:00,
2013-03-06 16:19:00,39.0,36.9,29.85,North,350,6.0,19.0,92,0.00,,,0.38,104,Wunderground v.1.15,2013-03-06 21:19:00,
2013-03-06 16:24:00,39.1,36.7,29.85,North,355,2.0,18.0,91,0.00,,,0.38,90,Wunderground v.1.15,2013-03-06 21:24:00,
2013-03-06 16:29:00,39.2,37.1,29.85,NNE,21,6.0,18.0,92,0.00,,,0.38,76,Wunderground v.1.15,2013-03-06 21:29:00,
2013-03-06 16:34:00,39.3,36.9,29.86,NNE,23,3.0,14.0,91,0.00,,,0.38,72,Wunderground v.1.15,2013-03-06 21:34:00,
2013-03-06 16:39:00,39.4,36.7,29.86,NW,323,3.0,16.0,90,0.00,,,0.38,49,Wunderground v.1.15,2013-03-06 21:39:00,
2013-03-06 16:44:00,39.4,36.7,29.87,NNE,17,12.0,17.0,90,0.00,,,0.38,62,Wunderground v.1.15,2013-03-06 21:44:00,
2013-03-06 16:49:00,39.5,36.8,29.87,West,267,7.0,24.0,90,0.00,,,0.38,44,Wunderground v.1.15,2013-03-06 21:49:00,
2013-03-06 16:54:00,39.5,36.5,29.88,North,355,9.0,21.0,89,0.00,,,0.38,39,Wunderground v.1.15,2013-03-06 21:54:00,
2013-03-06 16:59:00,39.4,36.7,29.89,North,5,9.0,21.0,90,0.00,,,0.38,23,Wunderground v.1.15,2013-03-06 21:59:00,
2013-03-06 17:04:00,39.4,36.4,29.90,NNW,338,4.0,11.0,89,0.00,,,0.38,23,Wunderground v.1.15,2013-03-06 22:04:00,
2013-03-06 17:09:00,39.3,36.3,29.90,NE,38,5.0,23.0,89,0.00,,,0.38,37,Wunderground v.1.15,2013-03-06 22:09:00,
2013-03-06 17:14:00,39.3,36.3,29.91,NNW,329,5.0,17.0,89,0.00,,,0.38,23,Wunderground v.1.15,2013-03-06 22:14:00,
2013-03-06 17:19:00,39.2,36.2,29.92,NNE,28,7.0,17.0,89,0.00,,,0.38,18,Wunderground v.1.15,2013-03-06 22:19:00,
2013-03-06 17:24:00,39.1,36.1,29.92,North,11,4.0,14.0,89,0.00,,,0.38,16,Wunderground v.1.15,2013-03-06 22:24:00,
2013-03-06 17:29:00,39.0,36.3,29.93,NW,312,3.0,22.0,90,0.00,,,0.38,16,Wunderground v.1.15,2013-03-06 22:29:00,
2013-03-06 17:34:00,38.7,36.3,29.93,WSW,257,7.0,14.0,91,0.00,,,0.38,19,Wunderground v.1.15,2013-03-06 22:34:00,
2013-03-06 17:39:00,38.6,36.2,29.94,NNW,343,6.0,17.0,91,0.00,,,0.38,18,Wunderground v.1.15,2013-03-06 22:39:00,
2013-03-06 17:44:00,38.5,36.1,29.95,NNE,12,4.0,16.0,91,0.00,,,0.38,19,Wunderground v.1.15,2013-03-06 22:44:00,
2013-03-06 17:49:00,38.5,35.8,29.95,NNW,332,5.0,16.0,90,0.00,,,0.38,12,Wunderground v.1.15,2013-03-06 22:49:00,
2013-03-06 17:55:00,38.5,36.1,29.96,NNW,341,4.0,11.0,91,0.00,,,0.38,11,Wunderground v.1.15,2013-03-06 22:55:00,
2013-03-06 18:00:00,38.5,35.8,29.96,NNW,330,6.0,15.0,90,0.00,,,0.39,7,Wunderground v.1.15,2013-03-06 23:00:00,
2013-03-06 18:05:00,38.6,35.9,29.96,North,360,3.0,15.0,90,0.00,,,0.39,5,Wunderground v.1.15,2013-03-06 23:05:00,
2013-03-06 18:10:00,38.6,35.9,29.97,NNE,17,4.0,6.0,90,0.00,,,0.39,0,Wunderground v.1.15,2013-03-06 23:10:00,
2013-03-06 18:15:00,38.6,35.9,29.97,NNW,331,4.0,13.0,90,0.00,,,0.39,0,Wunderground v.1.15,2013-03-06 23:15:00,
2013-03-06 18:20:00,38.6,35.6,29.98,NNE,13,5.0,6.0,89,0.00,,,0.39,0,Wunderground v.1.15,2013-03-06 23:20:00,
2013-03-06 18:25:00,38.7,35.7,29.98,NNW,335,4.0,13.0,89,0.00,,,0.39,0,Wunderground v.1.15,2013-03-06 23:25:00,
2013-03-06 18:30:00,38.8,35.8,29.98,NNW,343,3.0,7.0,89,0.00,,,0.39,0,Wunderground v.1.15,2013-03-06 23:30:00,
2013-03-06 18:35:00,38.9,35.6,29.98,NNE,13,3.0,10.0,88,0.00,,,0.39,0,Wunderground v.1.15,2013-03-06 23:35:00,
2013-03-06 18:40:00,39.0,35.7,29.98,WNW,292,5.0,6.0,88,0.00,,,0.39,0,Wunderground v.1.15,2013-03-06 23:40:00,
2013-03-06 18:45:00,39.1,35.6,29.99,NNW,330,2.0,8.0,87,0.00,,,0.39,0,Wunderground v.1.15,2013-03-06 23:45:00,
2013-03-06 18:50:00,39.3,35.5,29.99,NNW,338,6.0,6.0,86,0.00,,,0.39,0,Wunderground v.1.15,2013-03-06 23:50:00,
2013-03-06 18:55:00,39.6,35.5,29.99,NW,316,5.0,13.0,85,0.00,,,0.39,0,Wunderground v.1.15,2013-03-06 23:55:00,
2013-03-06 19:00:00,39.7,35.3,30.00,NW,313,3.0,8.0,84,0.00,,,0.39,0,Wunderground v.1.15,2013-03-07 00:00:00,
2013-03-06 19:05:00,39.8,35.1,30.00,NNW,336,3.0,12.0,83,0.00,,,0.39,0,Wunderground v.1.15,2013-03-07 00:05:00,
2013-03-06 19:10:00,40.0,35.3,30.00,NNW,341,1.0,11.0,83,0.00,,,0.39,0,Wunderground v.1.15,2013-03-07 00:10:00,
2013-03-06 19:15:00,40.0,34.9,30.01,North,355,3.0,14.0,82,0.00,,,0.39,0,Wunderground v.1.15,2013-03-07 00:15:00,
2013-03-06 19:20:00,40.1,35.0,30.01,WSW,250,7.0,7.0,82,0.00,,,0.39,0,Wunderground v.1.15,2013-03-07 00:20:00,
2013-03-06 19:25:00,40.1,35.0,30.02,North,360,4.0,12.0,82,0.00,,,0.39,0,Wunderground v.1.15,2013-03-07 00:25:00,
2013-03-06 19:30:00,40.2,34.8,30.02,NW,321,6.0,7.0,81,0.00,,,0.39,0,Wunderground v.1.15,2013-03-07 00:30:00,
2013-03-06 19:35:00,40.4,34.7,30.03,North,11,8.0,13.0,80,0.00,,,0.39,0,Wunderground v.1.15,2013-03-07 00:35:00,
2013-03-06 19:40:00,40.3,34.6,30.02,NW,318,2.0,10.0,80,0.00,,,0.39,0,Wunderground v.1.15,2013-03-07 00:40:00,
2013-03-06 19:45:00,40.4,34.4,30.03,North,5,5.0,11.0,79,0.00,,,0.39,0,Wunderground v.1.15,2013-03-07 00:45:00,
2013-03-06 19:50:00,40.5,34.5,30.03,NNW,335,5.0,6.0,79,0.00,,,0.39,0,Wunderground v.1.15,2013-03-07 00:50:00,
2013-03-06 19:55:00,40.4,34.4,30.03,NNW,346,2.0,11.0,79,0.00,,,0.39,0,Wunderground v.1.15,2013-03-07 00:55:00,
2013-03-06 20:01:00,40.3,34.3,30.03,NW,326,4.0,4.0,79,0.00,,,0.39,0,Wunderground v.1.15,2013-03-07 01:01:00,
2013-03-06 20:06:00,40.4,34.4,30.04,NW,312,2.0,11.0,79,0.00,,,0.39,0,Wunderground v.1.15,2013-03-07 01:06:00,
2013-03-06 20:11:00,40.4,34.1,30.04,NNW,332,6.0,12.0,78,0.00,,,0.39,0,Wunderground v.1.15,2013-03-07 01:11:00,
2013-03-06 20:16:00,40.5,34.2,30.04,North,5,5.0,12.0,78,0.00,,,0.39,0,Wunderground v.1.15,2013-03-07 01:16:00,
2013-03-06 20:21:00,40.4,34.1,30.04,North,5,5.0,8.0,78,0.00,,,0.39,0,Wunderground v.1.15,2013-03-07 01:21:00,
2013-03-06 20:26:00,40.4,34.1,30.04,WNW,286,8.0,10.0,78,0.00,,,0.39,0,Wunderground v.1.15,2013-03-07 01:26:00,
2013-03-06 20:31:00,40.4,34.1,30.04,NW,323,5.0,11.0,78,0.00,,,0.39,0,Wunderground v.1.15,2013-03-07 01:31:00,
2013-03-06 20:36:00,40.3,34.0,30.04,NNE,15,4.0,11.0,78,0.00,,,0.39,0,Wunderground v.1.15,2013-03-07 01:36:00,
2013-03-06 20:41:00,40.1,33.8,30.04,North,5,0.0,3.0,78,0.00,,,0.39,0,Wunderground v.1.15,2013-03-07 01:41:00,
2013-03-06 20:46:00,39.9,33.6,30.04,North,355,1.0,9.0,78,0.00,,,0.39,0,Wunderground v.1.15,2013-03-07 01:46:00,
2013-03-06 20:51:00,39.4,33.4,30.04,NNW,329,3.0,5.0,79,0.00,,,0.39,0,Wunderground v.1.15,2013-03-07 01:51:00,
2013-03-06 20:56:00,39.1,33.5,30.04,NNW,340,0.0,8.0,80,0.00,,,0.39,0,Wunderground v.1.15,2013-03-07 01:56:00,
2013-03-06 21:01:00,38.9,33.3,30.04,WNW,284,0.0,6.0,80,0.00,,,0.39,0,Wunderground v.1.15,2013-03-07 02:01:00,
2013-03-06 21:06:00,38.7,33.1,30.04,West,266,3.0,6.0,80,0.00,,,0.39,0,Wunderground v.1.15,2013-03-07 02:06:00,
2013-03-06 21:11:00,38.4,32.8,30.05,WNW,301,1.0,5.0,80,0.00,,,0.39,0,Wunderground v.1.15,2013-03-07 02:11:00,
2013-03-06 21:16:00,38.3,33.0,30.05,West,279,2.0,6.0,81,0.00,,,0.39,0,Wunderground v.1.15,2013-03-07 02:16:00,
2013-03-06 21:21:00,38.0,32.7,30.05,West,267,1.0,4.0,81,0.00,,,0.39,0,Wunderground v.1.15,2013-03-07 02:21:00,
2013-03-06 21:26:00,37.9,32.6,30.05,NNW,335,2.0,5.0,81,0.00,,,0.39,0,Wunderground v.1.15,2013-03-07 02:26:00,
2013-03-06 21:31:00,37.7,32.7,30.06,NW,309,1.0,2.0,82,0.00,,,0.39,0,Wunderground v.1.15,2013-03-07 02:31:00,
2013-03-06 21:36:00,37.6,32.3,30.06,North,355,1.0,7.0,81,0.00,,,0.39,0,Wunderground v.1.15,2013-03-07 02:36:00,
2013-03-06 21:41:00,37.5,32.2,30.06,North,355,1.0,3.0,81,0.00,,,0.39,0,Wunderground v.1.15,2013-03-07 02:41:00,
2013-03-06 21:46:00,37.5,32.2,30.06,West,278,3.0,5.0,81,0.00,,,0.39,0,Wunderground v.1.15,2013-03-07 02:46:00,
2013-03-06 21:51:00,37.3,32.0,30.06,WNW,294,4.0,5.0,81,0.00,,,0.39,0,Wunderground v.1.15,2013-03-07 02:51:00,
2013-03-06 21:56:00,37.6,32.3,30.06,NW,305,1.0,7.0,81,0.00,,,0.39,0,Wunderground v.1.15,2013-03-07 02:56:00,
2013-03-06 22:01:00,37.5,31.9,30.06,WNW,296,2.0,2.0,80,0.00,,,0.39,0,Wunderground v.1.15,2013-03-07 03:01:00,
2013-03-06 22:06:00,37.5,31.9,30.07,NNE,21,2.0,7.0,80,0.00,,,0.39,0,Wunderground v.1.15,2013-03-07 03:06:00,
2013-03-06 22:11:00,37.5,31.9,30.07,NNW,343,0.0,2.0,80,0.00,,,0.39,0,Wunderground v.1.15,2013-03-07 03:11:00,
2013-03-06 22:16:00,37.4,31.8,30.07,North,5,1.0,3.0,80,0.00,,,0.39,0,Wunderground v.1.15,2013-03-07 03:16:00,
2013-03-06 22:21:00,37.3,31.7,30.07,NW,308,1.0,2.0,80,0.00,,,0.39,0,Wunderground v.1.15,2013-03-07 03:21:00,
2013-03-06 22:26:00,37.2,31.6,30.07,West,269,5.0,5.0,80,0.00,,,0.39,0,Wunderground v.1.15,2013-03-07 03:26:00,
2013-03-06 22:31:00,37.1,31.5,30.07,NW,308,3.0,3.0,80,0.00,,,0.39,0,Wunderground v.1.15,2013-03-07 03:31:00,
2013-03-06 22:36:00,37.1,31.5,30.08,NW,315,1.0,6.0,80,0.00,,,0.39,0,Wunderground v.1.15,2013-03-07 03:36:00,
2013-03-06 22:41:00,37.1,31.5,30.08,NNW,334,2.0,3.0,80,0.00,,,0.39,0,Wunderground v.1.15,2013-03-07 03:41:00,
2013-03-06 22:46:00,37.0,31.4,30.08,North,355,4.0,5.0,80,0.00,,,0.39,0,Wunderground v.1.15,2013-03-07 03:46:00,
2013-03-06 22:51:00,37.0,31.4,30.08,North,5,1.0,5.0,80,0.00,,,0.39,0,Wunderground v.1.15,2013-03-07 03:51:00,
2013-03-06 22:56:00,37.0,31.7,30.08,NW,315,2.0,5.0,81,0.00,,,0.39,0,Wunderground v.1.15,2013-03-07 03:56:00,
2013-03-06 23:01:00,37.0,31.7,30.08,NW,319,4.0,6.0,81,0.00,,,0.39,0,Wunderground v.1.15,2013-03-07 04:01:00,
2013-03-06 23:06:00,37.0,31.4,30.08,NW,305,1.0,6.0,80,0.00,,,0.39,0,Wunderground v.1.15,2013-03-07 04:06:00,
2013-03-06 23:11:00,37.2,31.6,30.08,West,276,1.0,3.0,80,0.00,,,0.39,0,Wunderground v.1.15,2013-03-07 04:11:00,
2013-03-06 23:16:00,36.9,31.3,30.08,North,11,2.0,4.0,80,0.00,,,0.39,0,Wunderground v.1.15,2013-03-07 04:16:00,
2013-03-06 23:21:00,37.0,31.4,30.08,NNW,336,2.0,3.0,80,0.00,,,0.39,0,Wunderground v.1.15,2013-03-07 04:21:00,
2013-03-06 23:26:00,37.1,31.5,30.08,North,355,2.0,9.0,80,0.00,,,0.39,0,Wunderground v.1.15,2013-03-07 04:26:00,
2013-03-06 23:31:00,37.0,31.4,30.08,NW,311,2.0,5.0,80,0.00,,,0.39,0,Wunderground v.1.15,2013-03-07 04:31:00,
2013-03-06 23:36:00,37.0,31.4,30.08,West,267,2.0,5.0,80,0.00,,,0.39,0,Wunderground v.1.15,2013-03-07 04:36:00,
2013-03-06 23:41:00,37.0,31.4,30.08,NW,313,3.0,8.0,80,0.00,,,0.39,0,Wunderground v.1.15,2013-03-07 04:41:00,
2013-03-06 23:47:00,37.2,31.3,30.08,NNW,331,1.0,8.0,79,0.00,,,0.39,0,Wunderground v.1.15,2013-03-07 04:47:00,
2013-03-06 23:52:00,37.2,31.3,30.08,NW,324,0.0,4.0,79,0.00,,,0.39,0,Wunderground v.1.15,2013-03-07 04:52:00,
2013-03-06 23:57:00,37.3,31.4,30.08,SW,227,4.0,8.0,79,0.00,,,0.39,0,Wunderground v.1.15,2013-03-07 04:57:00,